Time;durP1;ratioP1;P1;durP2;ratioP2;P2;SDS_P1;SDS_P2;PMS_P1;PMS_P2;Temp;Humidity;BMP_temperature;BMP_pressure;BME280_temperature;BME280_humidity;BME280_pressure;Samples;Min_cycle;Max_cycle;Signal;HPM_P1;HPM_P2
2022/09/07 04:16:23;;;;;;;11.05;7.45;;;;;;;16.08;100.00;100538.84;6237380;27;20094;-86
2022/09/07 04:19:26;;;;;;;9.15;7.32;;;;;;;16.05;100.00;100536.53;5436500;32;33982;-86
2022/09/07 04:22:28;;;;;;;8.70;6.60;;;;;;;16.04;100.00;100536.78;5436388;32;35497;-86
2022/09/07 04:25:31;;;;;;;10.48;7.60;;;;;;;16.08;100.00;100546.16;5425381;32;33987;-86
2022/09/07 04:28:34;;;;;;;8.85;6.72;;;;;;;16.12;100.00;100541.13;5431429;32;34087;-86
2022/09/07 04:31:38;;;;;;;8.88;6.78;;;;;;;16.14;100.00;100531.72;5431401;32;35364;-86
2022/09/07 04:34:40;;;;;;;9.18;6.97;;;;;;;16.14;100.00;100533.62;5460903;32;35400;-86
2022/09/07 04:37:44;;;;;;;9.75;7.03;;;;;;;16.14;100.00;100534.44;5455407;32;33830;-86
2022/09/07 04:40:46;;;;;;;9.77;6.93;;;;;;;16.22;100.00;100538.84;5449559;32;33946;-86
2022/09/07 04:43:53;;;;;;;10.52;7.25;;;;;;;16.24;100.00;100548.47;5440741;32;34282;-86
2022/09/07 04:46:56;;;;;;;9.50;7.15;;;;;;;16.23;100.00;100548.66;5437354;32;33669;-86
2022/09/07 04:49:59;;;;;;;10.88;7.47;;;;;;;16.30;100.00;100546.78;5434172;32;35539;-86
2022/09/07 04:53:01;;;;;;;11.00;6.80;;;;;;;16.29;100.00;100545.09;5423940;32;33956;-87
2022/09/07 04:56:05;;;;;;;9.50;6.78;;;;;;;16.31;100.00;100556.59;5416923;32;34431;-87
2022/09/07 04:59:07;;;;;;;11.27;6.82;;;;;;;16.37;100.00;100546.75;5416751;32;34646;-86
2022/09/07 05:02:10;;;;;;;8.35;7.28;;;;;;;16.42;100.00;100550.50;5416808;32;33980;-88
2022/09/07 05:05:13;;;;;;;8.15;6.55;;;;;;;16.48;100.00;100552.37;5417689;32;34124;-88
2022/09/07 05:08:16;;;;;;;9.60;6.90;;;;;;;16.57;100.00;100544.00;5426517;32;33822;-88
2022/09/07 05:11:21;;;;;;;8.57;6.60;;;;;;;16.67;100.00;100536.22;5418173;32;33732;-89
2022/09/07 05:14:30;;;;;;;9.68;7.45;;;;;;;16.77;100.00;100534.78;5418708;32;34035;-89
2022/09/07 05:17:33;;;;;;;9.57;6.85;;;;;;;16.90;100.00;100554.78;5439132;32;34815;-89
2022/09/07 05:20:36;;;;;;;10.55;6.70;;;;;;;16.99;100.00;100561.66;5452543;27;34761;-89
2022/09/07 05:23:42;;;;;;;8.52;6.12;;;;;;;17.14;100.00;100556.81;5466421;27;33971;-89
2022/09/07 05:26:45;;;;;;;7.85;6.25;;;;;;;17.24;100.00;100561.75;5438628;32;34582;-89
2022/09/07 05:29:48;;;;;;;8.93;6.82;;;;;;;17.38;99.69;100566.09;5436485;32;33931;-89
2022/09/07 05:33:08;;;;;;;8.93;6.15;;;;;;;17.73;97.47;100567.56;5480975;27;34635;-89
2022/09/07 05:36:13;;;;;;;7.95;6.28;;;;;;;17.89;95.66;100567.03;5436523;27;32173;-89
2022/09/07 05:39:18;;;;;;;9.57;6.60;;;;;;;17.95;96.29;100559.88;5441207;32;34105;-89
2022/09/07 05:42:22;;;;;;;8.50;6.60;;;;;;;17.97;94.90;100558.59;5447420;27;32780;-89
2022/09/07 05:45:25;;;;;;;8.77;6.20;;;;;;;18.07;93.75;100560.81;5462334;27;33785;-88
2022/09/07 05:48:28;;;;;;;7.30;5.57;;;;;;;18.06;93.29;100567.31;5465300;27;33994;-88
2022/09/07 05:51:31;;;;;;;7.37;5.70;;;;;;;18.13;92.57;100573.53;5492669;27;34666;-88
2022/09/07 05:54:34;;;;;;;9.15;6.75;;;;;;;18.22;91.66;100572.22;5469137;27;34391;-89
2022/09/07 05:57:39;;;;;;;7.93;5.75;;;;;;;18.33;90.71;100578.81;5465207;27;33853;-89
2022/09/07 06:01:23;;;;;;;7.75;5.85;;;;;;;18.44;88.94;100577.25;5468218;27;34555;31
2022/09/07 06:04:29;;;;;;;8.25;5.93;;;;;;;18.52;88.24;100577.81;5457732;27;32434;-88
2022/09/07 06:07:31;;;;;;;6.65;5.60;;;;;;;18.66;87.15;100573.03;5510932;27;32045;-88
2022/09/07 06:10:36;;;;;;;9.75;6.00;;;;;;;18.80;86.68;100571.00;5427895;32;32848;-89
2022/09/07 06:13:46;;;;;;;8.10;5.85;;;;;;;18.90;86.62;100565.87;5420041;32;35149;-88
2022/09/07 06:16:49;;;;;;;7.47;5.78;;;;;;;19.03;84.24;100573.06;5460394;27;33550;-89
2022/09/07 06:19:53;;;;;;;7.07;6.28;;;;;;;19.11;84.34;100567.28;5435052;32;35202;-88
2022/09/07 06:22:58;;;;;;;8.07;6.05;;;;;;;19.08;82.57;100569.66;5425755;32;33708;-88
2022/09/07 06:26:01;;;;;;;7.32;5.57;;;;;;;19.19;83.38;100561.53;5434215;32;33687;-89
2022/09/07 06:29:04;;;;;;;6.12;5.43;;;;;;;19.33;82.11;100574.97;5432324;32;34215;-89
2022/09/07 06:32:45;;;;;;;6.30;5.60;;;;;;;19.45;80.68;100575.84;5437957;27;33836;-89
2022/09/07 06:36:09;;;;;;;6.30;5.40;;;;;;;19.55;80.79;100578.88;5509984;27;33394;-88
2022/09/07 06:39:12;;;;;;;6.22;5.47;;;;;;;19.57;80.15;100575.91;5464356;27;34547;-88
2022/09/07 06:42:19;;;;;;;6.10;5.20;;;;;;;19.70;79.93;100568.38;5478148;27;33861;-89
2022/09/07 06:45:36;;;;;;;7.03;5.47;;;;;;;19.89;78.73;100568.28;5446644;27;33879;-90
2022/09/07 06:49:16;;;;;;;7.20;5.47;;;;;;;20.01;77.34;100571.91;5273113;27;20073;-88
2022/09/07 06:56:27;;;;;;;8.50;6.07;;;;;;;20.26;75.58;100565.38;4839715;30;20125;-89
2022/09/07 06:59:42;;;;;;;10.88;7.00;;;;;;;20.05;76.31;100558.59;5424670;27;34660;-89
2022/09/07 07:02:45;;;;;;;8.50;6.57;;;;;;;20.30;75.54;100567.41;5462686;27;34285;-89
2022/09/07 07:05:52;;;;;;;7.70;6.35;;;;;;;20.35;75.37;100559.31;5469826;27;33818;-89
2022/09/07 07:08:55;;;;;;;12.88;7.47;;;;;;;20.57;75.46;100556.03;5475350;27;32539;-90
2022/09/07 07:11:58;;;;;;;9.80;6.18;;;;;;;20.71;74.72;100564.78;5435492;27;33723;-89
2022/09/07 07:15:00;;;;;;;7.30;5.40;;;;;;;20.76;73.19;100565.72;5452518;27;31628;-89
2022/09/07 07:18:03;;;;;;;5.90;5.22;;;;;;;20.81;74.30;100563.09;5476960;27;33650;-90
2022/09/07 07:21:25;;;;;;;5.65;5.03;;;;;;;20.93;72.80;100560.34;5496514;27;35342;-89
2022/09/07 07:38:19;;;;;;;10.15;5.47;;;;;;;22.02;68.04;100556.63;6593746;26;896093;-90
2022/09/07 07:41:51;;;;;;;9.88;4.90;;;;;;;21.67;69.46;100560.41;6647611;26;35179;-90
2022/09/07 07:49:19;;;;;;;5.28;4.75;;;;;;;22.11;66.68;100557.03;6556157;26;34222;-89
2022/09/07 08:13:41;;;;;;;8.70;4.80;;;;;;;22.79;64.49;100550.41;6643201;26;20093;-89
2022/09/07 08:53:44;;;;;;;5.18;4.00;;;;;;;24.09;57.70;100526.75;6632245;26;20070;-90
2022/09/07 10:15:34;;;;;;;4.70;4.20;;;;;;;27.52;47.33;100470.53;6583664;26;20745;-89
2022/09/07 10:22:52;;;;;;;4.65;4.20;;;;;;;27.63;46.27;100465.75;6698438;26;20038;-88
2022/09/07 10:25:59;;;;;;;5.15;4.65;;;;;;;27.92;45.96;100463.03;6683274;26;34968;-88
2022/09/07 10:29:07;;;;;;;4.37;3.97;;;;;;;28.07;45.50;100462.03;6698543;26;35227;-89
2022/09/07 10:52:38;;;;;;;;;;;;;;;29.76;42.91;100443.97;6675407;26;20688;-89
2022/09/07 11:37:58;;;;;;;5.47;4.97;;;;;;;33.31;32.80;100410.59;6693127;26;20078;-90
2022/09/07 11:57:37;;;;;;;6.47;4.70;;;;;;;36.83;28.44;100389.16;6542072;27;20072;-88
2022/09/07 12:00:54;;;;;;;7.45;5.20;;;;;;;37.07;27.01;100391.09;6596377;26;33897;-88
2022/09/07 12:03:57;;;;;;;6.37;5.78;;;;;;;37.01;25.85;100388.91;6652643;26;33758;-88
2022/09/07 12:07:22;;;;;;;7.82;5.80;;;;;;;36.26;26.40;100385.34;6638301;26;33393;-89
2022/09/07 12:23:04;;;;;;;7.12;6.40;;;;;;;37.22;25.12;100367.84;6699902;26;20046;-88
2022/09/07 12:34:29;;;;;;;9.68;7.25;;;;;;;35.90;27.69;100368.53;6653009;26;20042;-89
2022/09/07 12:37:32;;;;;;;7.72;6.93;;;;;;;36.10;27.12;100359.22;6685175;26;33554;-87
2022/09/07 12:40:36;;;;;;;7.25;6.50;;;;;;;36.45;26.17;100365.13;6691745;26;33490;-89
2022/09/07 12:43:41;;;;;;;8.48;7.32;;;;;;;37.18;24.85;100364.12;6671282;26;32952;-89
2022/09/07 12:46:47;;;;;;;6.70;6.10;;;;;;;38.17;24.30;100358.69;6671599;26;32084;-89
2022/09/07 12:50:21;;;;;;;7.20;6.30;;;;;;;38.75;23.16;100352.37;6689007;26;34295;-88
2022/09/07 12:54:11;;;;;;;6.90;6.20;;;;;;;38.95;22.79;100358.84;6570945;27;33163;-89
2022/09/07 12:57:49;;;;;;;7.37;6.68;;;;;;;40.18;21.44;100348.63;6548190;27;34667;-89
2022/09/07 13:01:30;;;;;;;7.40;6.70;;;;;;;40.49;21.71;100348.28;6613473;26;33092;-89
2022/09/07 13:04:36;;;;;;;8.52;6.68;;;;;;;41.19;20.60;100337.50;6619216;26;35229;-87
2022/09/07 13:08:02;;;;;;;6.78;6.03;;;;;;;40.42;21.32;100344.56;6646193;26;33880;-86
2022/09/07 13:11:18;;;;;;;7.68;6.05;;;;;;;40.48;22.02;100345.84;6623015;26;33427;-91
2022/09/07 13:14:25;;;;;;;7.90;6.28;;;;;;;41.83;20.62;100340.12;6635576;26;34625;-87
2022/09/07 13:17:30;;;;;;;6.78;6.07;;;;;;;42.40;19.75;100332.09;6636082;26;33798;-88
2022/09/07 13:20:34;;;;;;;;;;;;;;;41.68;20.64;100327.88;6635482;26;33674;-87
2022/09/07 13:24:14;;;;;;;6.57;5.75;;;;;;;41.51;20.65;100329.38;6634470;26;33682;-87
2022/09/07 13:27:52;;;;;;;7.57;6.20;;;;;;;41.87;20.73;100319.16;6620873;26;32299;-87
2022/09/07 13:31:14;;;;;;;7.50;6.07;;;;;;;40.85;21.04;100326.19;6630345;26;32390;-87
2022/09/07 13:34:42;;;;;;;7.00;5.60;;;;;;;41.23;20.82;100318.56;6605594;27;35144;-87
2022/09/07 13:37:53;;;;;;;6.10;5.50;;;;;;;40.40;22.07;100318.72;6606507;27;33859;-87
2022/09/07 13:41:04;;;;;;;6.53;5.30;;;;;;;40.49;22.14;100313.62;6613305;27;34875;-87
2022/09/07 13:44:18;;;;;;;6.93;5.25;;;;;;;40.10;22.19;100308.19;6606453;27;34924;-88
2022/09/07 13:47:39;;;;;;;6.07;5.47;;;;;;;40.58;21.71;100309.31;6606233;27;33872;-87
2022/09/07 13:50:59;;;;;;;7.82;5.70;;;;;;;40.34;22.07;100296.50;6604739;27;33041;-87
2022/09/07 13:54:26;;;;;;;6.60;5.82;;;;;;;41.23;21.41;100296.78;6606180;27;34279;-87
2022/09/07 13:57:58;;;;;;;6.70;5.68;;;;;;;41.35;21.32;100289.22;6604301;27;32390;-87
2022/09/07 14:01:27;;;;;;;6.00;4.97;;;;;;;40.15;22.61;100288.13;6605069;27;32863;-87
2022/09/07 14:04:38;;;;;;;7.50;5.25;;;;;;;39.39;22.69;100297.38;6621814;26;33542;-87
2022/09/07 14:07:44;;;;;;;7.53;5.35;;;;;;;37.54;24.66;100285.66;6642065;26;33523;-87
2022/09/07 14:10:47;;;;;;;6.55;5.45;;;;;;;35.69;27.96;100293.81;6641203;26;33991;-87
2022/09/07 14:14:15;;;;;;;9.82;5.80;;;;;;;34.62;29.20;100293.56;6614491;26;32359;-90
2022/09/07 14:17:18;;;;;;;6.32;5.72;;;;;;;33.37;31.37;100283.69;6653759;26;35847;-87
2022/09/07 14:20:22;;;;;;;6.00;5.50;;;;;;;32.67;32.54;100280.22;6641241;26;35122;-87
2022/09/07 14:23:28;;;;;;;6.78;6.07;;;;;;;32.19;33.86;100283.09;6634226;26;33532;-86
2022/09/07 14:26:31;;;;;;;6.12;5.62;;;;;;;31.74;34.38;100289.69;6634265;26;34508;-87
2022/09/07 14:29:35;;;;;;;7.22;6.20;;;;;;;31.66;35.29;100290.47;6633912;26;34081;-87
2022/09/07 14:32:38;;;;;;;8.32;6.00;;;;;;;31.14;35.66;100287.38;6617400;26;32493;-87
2022/09/07 14:35:41;;;;;;;6.60;6.00;;;;;;;30.76;35.88;100289.72;6634021;26;34481;-87
2022/09/07 14:38:45;;;;;;;8.02;6.45;;;;;;;30.77;36.53;100288.56;6634146;26;33652;-87
2022/09/07 14:42:15;;;;;;;9.65;6.62;;;;;;;30.47;36.83;100291.75;6612820;26;32400;-86
2022/09/07 14:45:20;;;;;;;9.38;6.25;;;;;;;30.26;37.18;100285.03;6614234;26;32668;-86
2022/09/07 14:48:23;;;;;;;8.63;6.47;;;;;;;30.12;38.36;100284.19;6634451;26;34725;-88
2022/09/07 14:51:35;;;;;;;6.90;5.93;;;;;;;29.76;38.06;100274.69;6635216;26;34723;-89
2022/09/07 14:54:38;;;;;;;7.15;6.45;;;;;;;29.58;39.54;100281.13;6634623;26;34632;-89
2022/09/07 14:57:41;;;;;;;7.32;6.30;;;;;;;29.39;39.18;100286.75;6613434;26;32656;-86
2022/09/07 15:00:49;;;;;;;6.85;6.10;;;;;;;29.28;39.61;100283.34;6634013;26;33458;-87
2022/09/07 15:04:17;;;;;;;6.15;5.55;;;;;;;29.18;39.88;100280.75;6614118;26;32421;-86
2022/09/07 15:07:27;;;;;;;7.45;5.90;;;;;;;28.85;39.66;100280.75;6614401;26;32636;-87
2022/09/07 15:10:35;;;;;;;7.70;5.80;;;;;;;28.87;40.73;100274.87;6642017;26;33779;-87
2022/09/07 15:13:44;;;;;;;7.10;5.85;;;;;;;28.81;39.43;100281.63;6634497;26;33743;-93
2022/09/07 15:17:01;;;;;;;10.02;5.70;;;;;;;28.74;39.53;100286.75;6616533;26;33758;-92
2022/09/07 15:20:39;;;;;;;6.78;6.07;;;;;;;28.60;39.58;100275.59;6616934;26;32377;-88
2022/09/07 15:23:41;;;;;;;8.50;6.03;;;;;;;28.35;40.56;100280.38;6640543;26;33969;-87
2022/09/07 15:26:47;;;;;;;6.78;5.82;;;;;;;28.08;41.04;100274.66;6613920;26;33251;-87
2022/09/07 15:30:08;;;;;;;7.40;6.05;;;;;;;28.02;41.95;100271.97;6620271;26;33108;-87
2022/09/07 15:33:11;;;;;;;7.87;5.43;;;;;;;28.07;42.63;100273.00;6639202;26;34654;-88
2022/09/07 15:36:15;;;;;;;7.45;6.28;;;;;;;28.14;42.03;100274.31;6639147;26;33647;-88
2022/09/07 15:39:21;;;;;;;7.97;5.80;;;;;;;28.20;41.63;100275.06;6618896;26;32496;-88
2022/09/07 15:42:24;;;;;;;7.82;6.10;;;;;;;28.29;41.26;100276.03;6637864;26;34110;-87
2022/09/07 15:45:48;;;;;;;7.85;6.25;;;;;;;28.22;42.12;100281.91;6637770;26;34151;-87
2022/09/07 15:48:54;;;;;;;5.95;5.45;;;;;;;28.02;42.54;100284.97;6618049;26;32265;-87
2022/09/07 15:51:57;;;;;;;7.30;5.90;;;;;;;27.87;42.18;100279.62;6638006;26;33605;-89
2022/09/07 15:55:08;;;;;;;6.87;5.65;;;;;;;27.62;44.73;100278.78;6616367;26;33233;-88
2022/09/07 15:58:11;;;;;;;6.78;5.97;;;;;;;27.61;42.67;100281.84;6637654;26;33554;-88
2022/09/07 16:01:14;;;;;;;6.78;5.80;;;;;;;27.59;42.76;100290.44;6618185;26;32948;-88
2022/09/07 16:04:39;;;;;;;6.82;6.12;;;;;;;27.47;43.30;100281.72;6639496;26;35310;-89
2022/09/07 16:07:43;;;;;;;7.15;6.12;;;;;;;27.28;45.19;100284.41;6639989;26;34021;-88
2022/09/07 16:11:18;;;;;;;7.70;6.25;;;;;;;27.18;45.33;100290.84;6616997;26;32336;-88
2022/09/07 16:14:21;;;;;;;6.87;6.00;;;;;;;27.08;45.35;100290.91;6644947;26;33873;-88
2022/09/07 16:17:24;;;;;;;8.07;6.40;;;;;;;27.05;45.81;100292.31;6627131;26;32540;-88
2022/09/07 16:20:37;;;;;;;8.63;6.45;;;;;;;26.93;46.64;100286.34;6640326;26;33522;-88
2022/09/07 16:23:43;;;;;;;9.13;6.80;;;;;;;26.95;46.48;100278.59;6640800;26;33966;-88
2022/09/07 16:26:45;;;;;;;11.27;6.70;;;;;;;26.94;46.03;100278.88;6622654;26;32432;-88
2022/09/07 16:29:49;;;;;;;8.02;6.57;;;;;;;26.90;47.00;100279.44;6646073;26;34369;-87
2022/09/07 16:32:52;;;;;;;8.80;6.70;;;;;;;26.80;49.14;100273.22;6644284;26;35324;-88
2022/09/07 16:35:57;;;;;;;8.70;7.05;;;;;;;26.71;49.97;100272.19;6617892;26;33914;-88
2022/09/07 16:39:01;;;;;;;11.27;7.00;;;;;;;26.62;48.09;100274.72;6615246;26;32631;-88
2022/09/07 16:42:04;;;;;;;8.90;6.95;;;;;;;26.59;47.68;100272.50;6614461;26;32327;-88
2022/09/07 16:45:08;;;;;;;8.85;7.40;;;;;;;26.52;48.53;100274.78;6634252;26;33866;-88
2022/09/07 16:48:33;;;;;;;9.60;7.55;;;;;;;26.39;51.68;100267.94;6634410;26;33390;-87
2022/09/07 16:51:36;;;;;;;9.57;7.00;;;;;;;26.30;52.32;100264.13;6634289;26;33937;-87
2022/09/07 16:54:41;;;;;;;7.80;6.30;;;;;;;26.26;50.05;100261.09;6634874;26;35105;-88
2022/09/07 16:57:43;;;;;;;8.18;7.10;;;;;;;26.16;52.19;100264.75;6614378;26;32507;-87
2022/09/07 17:01:09;;;;;;;9.63;7.95;;;;;;;26.02;53.80;100250.75;6614106;26;33200;-87
2022/09/07 17:04:12;;;;;;;10.18;7.22;;;;;;;25.89;52.54;100253.31;6635854;26;33404;-87
2022/09/07 17:07:15;;;;;;;8.20;7.20;;;;;;;25.78;54.23;100246.97;6637028;26;34839;-91
2022/09/07 17:10:17;;;;;;;8.93;7.60;;;;;;;25.69;54.92;100254.19;6640623;26;33855;-91
2022/09/07 17:13:21;;;;;;;11.80;8.05;;;;;;;25.58;55.80;100250.63;6635390;26;35270;-91
